createdAt,value
2019-01-15T11:37:59.607Z,8.00
2019-01-15T11:40:28.498Z,6.30
2019-01-15T11:42:57.386Z,6.30
2019-01-15T11:45:26.279Z,6.20
2019-01-15T11:47:55.269Z,6.10
2019-01-15T11:50:24.879Z,6.00
2019-01-15T11:52:53.766Z,5.70
2019-01-15T11:55:22.666Z,5.70
2019-01-15T11:57:51.650Z,5.60
2019-01-15T12:00:34.060Z,5.50
2019-01-15T12:03:04.589Z,5.40
2019-01-15T12:05:51.707Z,5.30
2019-01-15T12:08:22.236Z,5.20
2019-01-15T12:10:58.704Z,5.20
2019-01-15T12:13:31.930Z,5.10
2019-01-15T12:16:08.774Z,5.10
2019-01-15T12:18:48.415Z,5.00
2019-01-15T12:21:35.328Z,4.90
2019-01-15T12:24:12.585Z,4.90
2019-01-15T12:26:59.533Z,4.90
2019-01-15T12:29:30.065Z,4.90
2019-01-15T12:32:03.358Z,4.90
2019-01-15T12:34:33.834Z,4.90
2019-01-15T12:37:19.770Z,4.80
2019-01-15T12:39:53.064Z,4.80
2019-01-15T12:42:40.081Z,4.90
2019-01-15T12:45:18.887Z,4.90
2019-01-15T12:47:49.432Z,5.00
2019-01-15T12:50:38.191Z,5.00
2019-01-15T12:53:25.205Z,5.00
2019-01-15T12:56:12.020Z,5.00
2019-01-15T12:59:01.081Z,4.90
2019-01-15T13:02:07.349Z,4.80
2019-01-15T13:04:50.266Z,4.80
2019-01-15T13:07:20.743Z,4.80
2019-01-15T13:09:51.231Z,4.80
2019-01-15T13:12:24.408Z,4.80
2019-01-15T13:14:54.950Z,4.80
2019-01-15T13:17:31.308Z,4.80
2019-01-15T13:20:18.019Z,4.80
2019-01-15T13:23:06.979Z,4.80
2019-01-15T13:25:37.512Z,4.90
2019-01-15T13:28:27.589Z,4.80
2019-01-15T13:31:14.516Z,4.80
2019-01-15T13:33:47.496Z,4.80
2019-01-15T13:36:18.026Z,4.90
2019-01-15T13:39:04.839Z,4.90
2019-01-15T13:41:38.440Z,5.00
2019-01-15T13:44:25.153Z,5.10
2019-01-15T13:46:55.783Z,5.10
2019-01-15T13:49:35.178Z,5.20
2019-01-15T13:52:12.094Z,5.20
2019-01-15T13:54:45.698Z,5.10
2019-01-15T13:57:21.855Z,5.10
2019-01-15T13:59:52.383Z,5.10
2019-01-15T14:02:28.885Z,5.00
2019-01-15T14:05:02.353Z,5.00
2019-01-15T14:07:35.645Z,5.00
2019-01-15T14:10:09.025Z,4.90
2019-01-15T14:12:39.571Z,4.90
2019-01-15T14:15:26.587Z,4.80
2019-01-15T14:18:09.402Z,4.90
2019-01-15T14:20:56.628Z,4.90
2019-01-15T14:23:30.025Z,4.90
2019-01-15T14:26:16.730Z,4.90
2019-01-15T14:28:56.069Z,4.80
2019-01-15T14:31:29.254Z,4.80
2019-01-15T14:34:11.667Z,4.80
2019-01-15T14:36:48.131Z,4.80
2019-01-15T14:39:18.664Z,4.80
2019-01-15T14:41:55.030Z,4.80
2019-01-15T14:44:41.739Z,4.80
2019-01-15T14:47:12.265Z,4.80
2019-01-15T14:49:59.386Z,4.80
2019-01-15T14:52:32.680Z,4.80
2019-01-15T14:55:15.496Z,4.80
2019-01-15T14:58:02.304Z,4.80
2019-01-15T15:00:32.833Z,4.80
2019-01-15T15:03:09.475Z,4.90
2019-01-15T15:05:40.037Z,4.90
2019-01-15T15:08:22.832Z,4.80
2019-01-15T15:11:09.870Z,4.80
2019-01-15T15:13:49.309Z,4.90
2019-01-15T15:16:22.807Z,4.90
2019-01-15T15:19:08.491Z,4.90
2019-01-15T15:21:41.888Z,4.90
2019-01-15T15:24:12.419Z,4.80
2019-01-15T15:26:58.099Z,4.80
2019-01-15T15:29:31.292Z,4.80
2019-01-15T15:32:07.880Z,4.80
2019-01-15T15:34:44.432Z,4.80
2019-01-15T15:37:31.452Z,4.80
2019-01-15T15:40:04.948Z,4.80
2019-01-15T15:42:37.937Z,4.80
2019-01-15T15:45:26.385Z,4.70
2019-01-15T15:48:15.042Z,4.80
2019-01-15T15:50:48.742Z,4.80
2019-01-15T15:53:35.652Z,4.80
2019-01-15T15:56:07.426Z,4.80
2019-01-15T15:58:37.942Z,4.80
2019-01-15T16:01:08.471Z,4.80
2019-01-15T16:03:38.897Z,4.80
2019-01-15T16:06:12.298Z,4.80
2019-01-15T16:08:45.694Z,4.80
2019-01-15T16:11:16.224Z,4.90
2019-01-15T16:13:46.748Z,4.80
2019-01-15T16:16:26.536Z,4.80
2019-01-15T16:18:57.229Z,4.80
2019-01-15T16:21:30.623Z,4.80
2019-01-15T16:24:03.814Z,4.80
2019-01-15T16:26:37.006Z,4.90
2019-01-15T16:29:25.691Z,4.90
2019-01-15T16:32:14.624Z,5.00
2019-01-15T16:34:45.153Z,5.00
2019-01-15T16:37:18.342Z,5.00
2019-01-15T16:39:51.639Z,4.90
2019-01-15T16:42:40.246Z,5.00
2019-01-15T16:45:29.152Z,5.00
2019-01-15T16:48:05.926Z,5.00
2019-01-15T16:50:45.568Z,5.00
2019-01-15T16:53:16.101Z,4.90
2019-01-15T16:56:01.986Z,5.00
2019-01-15T16:58:38.148Z,5.00
2019-01-15T17:01:08.677Z,5.10
2019-01-15T17:03:41.665Z,5.00
2019-01-15T17:06:12.938Z,5.10
2019-01-15T17:08:59.924Z,5.00
2019-01-15T17:11:52.270Z,5.10
2019-01-15T17:14:24.276Z,5.10
2019-01-15T17:16:57.624Z,5.10
2019-01-15T17:19:28.056Z,5.00
2019-01-15T17:22:04.314Z,5.00
2019-01-15T17:24:43.551Z,5.00
2019-01-15T17:27:14.081Z,5.00
2019-01-15T17:29:44.609Z,4.90
2019-01-15T17:32:31.691Z,5.00
2019-01-15T17:35:02.765Z,5.00
2019-01-15T17:37:36.375Z,5.00
2019-01-15T17:40:15.702Z,5.00
2019-01-15T17:43:02.617Z,5.00
2019-01-15T17:45:33.166Z,5.10
2019-01-15T17:48:03.674Z,5.10
2019-01-15T17:50:34.202Z,5.10
2019-01-15T17:53:20.755Z,5.10
2019-01-15T17:55:51.955Z,5.10
2019-01-15T17:58:22.382Z,5.10
2019-01-15T18:01:01.918Z,5.10
2019-01-15T18:03:53.214Z,5.10
2019-01-15T18:06:31.613Z,5.10
2019-01-15T18:09:14.466Z,5.10
2019-01-15T18:11:44.998Z,5.10
2019-01-15T18:14:18.706Z,5.10
2019-01-15T18:17:05.822Z,5.10
2019-01-15T18:19:36.352Z,5.10
2019-01-15T18:22:09.947Z,5.10
2019-01-15T18:24:40.477Z,5.10
2019-01-15T18:27:27.518Z,5.10
2019-01-15T18:30:03.835Z,5.10
2019-01-15T18:32:46.066Z,5.10
2019-01-15T18:35:19.591Z,5.10
2019-01-15T18:37:56.037Z,5.10
2019-01-15T18:40:41.560Z,5.10
2019-01-15T18:43:17.566Z,5.10
2019-01-15T18:45:54.343Z,5.10
2019-01-15T18:48:24.974Z,5.20
2019-01-15T18:51:10.455Z,5.20
2019-01-15T18:53:41.128Z,5.10
2019-01-15T18:56:15.001Z,5.10
2019-01-15T18:58:45.469Z,5.10
2019-01-15T19:01:16.261Z,5.10
2019-01-15T19:03:47.195Z,5.00
2019-01-15T19:06:33.903Z,5.10
2019-01-15T19:09:20.670Z,5.00
2019-01-15T19:12:07.835Z,5.00
2019-01-15T19:14:55.011Z,5.00
2019-01-15T19:17:25.621Z,5.00
2019-01-15T19:19:58.766Z,5.00
2019-01-15T19:22:29.225Z,5.00
2019-01-15T19:25:02.705Z,5.00
2019-01-15T19:27:45.312Z,4.90
2019-01-15T19:30:18.417Z,4.90
2019-01-15T19:32:49.075Z,4.90
2019-01-15T19:35:19.566Z,4.90
2019-01-15T19:37:50.312Z,5.00
2019-01-15T19:40:37.615Z,5.00
2019-01-15T19:43:14.604Z,5.00
2019-01-15T19:46:01.345Z,5.00
2019-01-15T19:48:43.588Z,5.00
2019-01-15T19:51:32.181Z,4.90
2019-01-15T19:54:20.617Z,5.00
2019-01-15T19:57:03.326Z,5.00
2019-01-15T19:59:39.797Z,5.00
2019-01-15T20:02:26.407Z,5.00
2019-01-15T20:05:12.293Z,5.00
2019-01-15T20:07:45.484Z,5.00
2019-01-15T20:10:19.326Z,5.00
2019-01-15T20:13:01.986Z,5.00
2019-01-15T20:15:50.973Z,5.10
2019-01-15T20:18:30.645Z,5.00
2019-01-15T20:21:13.331Z,5.00
2019-01-15T20:23:46.312Z,5.10
2019-01-15T20:26:33.430Z,5.00
2019-01-15T20:29:06.824Z,5.10
2019-01-15T20:31:53.332Z,5.10
2019-01-15T20:34:26.942Z,5.00
2019-01-15T20:36:57.669Z,5.00
2019-01-15T20:39:28.853Z,5.10
2019-01-15T20:41:59.377Z,5.10
2019-01-15T20:44:29.853Z,5.10
2019-01-15T20:47:00.366Z,5.10
2019-01-15T20:49:39.602Z,5.10
2019-01-15T20:52:27.973Z,5.20
2019-01-15T20:55:07.450Z,5.20
2019-01-15T20:57:49.500Z,5.20
2019-01-15T21:00:26.033Z,5.20
2019-01-15T21:02:59.189Z,5.30
2019-01-15T21:05:32.611Z,5.30
2019-01-15T21:08:06.015Z,5.30
2019-01-15T21:10:45.305Z,5.30
2019-01-15T21:13:18.495Z,5.30
2019-01-15T21:15:58.092Z,5.30
2019-01-15T21:18:46.998Z,5.20
2019-01-15T21:21:35.549Z,5.30
2019-01-15T21:24:18.059Z,5.30
2019-01-15T21:26:48.587Z,5.30
2019-01-15T21:29:22.085Z,5.40
2019-01-15T21:31:58.862Z,5.40
2019-01-15T21:34:29.289Z,5.30
2019-01-15T21:37:15.074Z,5.30
2019-01-15T21:39:54.107Z,5.40
2019-01-15T21:42:27.397Z,5.40
2019-01-15T21:45:09.703Z,5.40
2019-01-15T21:47:46.275Z,5.40
2019-01-15T21:50:16.803Z,5.40
2019-01-15T21:52:53.385Z,5.40
2019-01-15T21:55:33.020Z,5.40
2019-01-15T21:58:08.974Z,5.40
2019-01-15T22:00:57.318Z,5.40
2019-01-15T22:03:44.232Z,5.40
2019-01-15T22:06:21.012Z,5.40
2019-01-15T22:09:06.898Z,5.30
2019-01-15T22:11:43.058Z,5.30
2019-01-15T22:14:19.118Z,5.30
2019-01-15T22:16:58.868Z,5.30
2019-01-15T22:19:35.638Z,5.40
2019-01-15T22:22:06.273Z,5.30
2019-01-15T22:24:39.768Z,5.30
2019-01-15T22:27:13.267Z,5.30
2019-01-15T22:30:00.388Z,5.30
2019-01-15T22:32:47.503Z,5.30
2019-01-15T22:35:18.382Z,5.30
2019-01-15T22:38:01.054Z,5.20
2019-01-15T22:40:34.547Z,5.20
2019-01-15T22:43:17.065Z,5.30
2019-01-15T22:46:03.976Z,5.20
2019-01-15T22:48:52.528Z,5.20
2019-01-15T22:51:23.057Z,5.20
2019-01-15T22:54:09.665Z,5.20
2019-01-15T22:56:45.928Z,5.20
2019-01-15T22:59:19.221Z,5.10
2019-01-15T23:02:06.956Z,5.20
2019-01-15T23:04:55.301Z,5.10
2019-01-15T23:07:34.754Z,5.20
2019-01-15T23:10:12.539Z,5.20
2019-01-15T23:12:43.027Z,5.20
2019-01-15T23:15:19.640Z,5.10
2019-01-15T23:18:06.757Z,5.10
2019-01-15T23:20:53.772Z,5.10
2019-01-15T23:23:24.301Z,5.20
2019-01-15T23:25:57.390Z,5.20
2019-01-15T23:28:39.943Z,5.20
2019-01-15T23:31:16.373Z,5.30
2019-01-15T23:33:59.159Z,5.20
2019-01-15T23:36:32.378Z,5.20
2019-01-15T23:39:05.570Z,5.20
2019-01-15T23:41:38.867Z,5.20
2019-01-15T23:44:12.262Z,5.20
2019-01-15T23:46:45.452Z,5.20
2019-01-15T23:49:21.719Z,5.10
2019-01-15T23:51:52.246Z,5.10
2019-01-15T23:54:39.362Z,5.10
2019-01-15T23:57:12.963Z,5.10
